Time;durP1;ratioP1;P1;durP2;ratioP2;P2;SDS_P1;SDS_P2;PMS_P1;PMS_P2;Temp;Humidity;BMP_temperature;BMP_pressure;BME280_temperature;BME280_humidity;BME280_pressure;Samples;Min_cycle;Max_cycle;Signal;HPM_P1;HPM_P2
2021/12/19 00:00:13;;;;;;;9.45;6.05;;;;;;;6.45;81.80;101224.06;1721539;83;21555;-81
2021/12/19 00:03:04;;;;;;;9.03;4.75;;;;;;;6.47;81.82;101215.45;1721251;83;22187;-81
2021/12/19 00:10:46;;;;;;;10.20;5.62;;;;;;;6.54;81.66;101188.78;1720981;83;21046;-80
2021/12/19 00:13:13;;;;;;;9.78;5.50;;;;;;;6.54;81.62;101178.32;1721175;83;21070;-81
2021/12/19 00:15:40;;;;;;;10.28;5.17;;;;;;;6.55;81.62;101177.52;1721222;83;21496;-80
2021/12/19 00:18:06;;;;;;;12.55;9.00;;;;;;;6.57;81.61;101191.56;1721039;83;21150;-80
2021/12/19 00:20:33;;;;;;;9.13;5.15;;;;;;;6.60;81.58;101173.80;1721207;83;21761;-81
2021/12/19 00:23:00;;;;;;;9.03;5.00;;;;;;;6.61;81.57;101171.26;1721114;81;21061;-81
2021/12/19 00:25:26;;;;;;;6.30;4.97;;;;;;;6.63;81.50;101165.22;1722379;82;21531;-80
2021/12/19 00:27:53;;;;;;;9.63;5.75;;;;;;;6.63;81.47;101170.03;1740320;82;21640;-81
2021/12/19 00:30:20;;;;;;;7.30;5.20;;;;;;;6.61;81.41;101163.41;1740566;82;21074;-81
2021/12/19 00:32:46;;;;;;;9.15;4.97;;;;;;;6.61;81.44;101152.95;1740524;82;22602;-81
2021/12/19 00:35:13;;;;;;;10.53;6.25;;;;;;;6.63;81.47;101149.10;1740519;82;21090;-81
2021/12/19 00:37:40;;;;;;;8.03;4.90;;;;;;;6.65;81.44;101146.14;1740562;82;21054;-81
2021/12/19 00:40:08;;;;;;;11.57;5.05;;;;;;;6.66;81.39;101151.84;1740568;82;21596;-81
2021/12/19 00:42:35;;;;;;;11.20;5.60;;;;;;;6.65;81.38;101139.61;1741013;82;21090;-81
2021/12/19 00:45:16;;;;;;;8.70;5.12;;;;;;;6.67;81.34;101140.99;1740485;82;21798;-80
2021/12/19 00:47:34;;;;;;;9.58;5.17;;;;;;;6.67;81.34;101133.14;1739401;82;21058;-81
2021/12/19 00:50:00;;;;;;;11.15;5.08;;;;;;;6.67;81.29;101143.61;1740949;82;21179;-80
2021/12/19 00:52:27;;;;;;;10.82;5.35;;;;;;;6.52;81.23;101128.08;1740978;82;21215;-80
2021/12/19 00:54:54;;;;;;;10.65;5.37;;;;;;;6.61;81.20;101143.80;1740755;82;21125;-80
2021/12/19 00:57:20;;;;;;;14.50;5.28;;;;;;;6.59;81.24;101150.67;1740582;82;22521;-80
2021/12/19 00:59:47;;;;;;;11.55;4.83;;;;;;;6.58;81.23;101148.87;1740597;82;21087;-79
2021/12/19 01:02:13;;;;;;;12.45;5.08;;;;;;;6.56;81.25;101145.28;1740850;82;21047;-80
2021/12/19 01:04:41;;;;;;;11.40;5.30;;;;;;;6.54;81.23;101149.55;1740936;82;21074;-81
2021/12/19 01:07:08;;;;;;;11.15;5.05;;;;;;;6.56;81.30;101143.98;1740663;82;21085;-81
2021/12/19 01:09:35;;;;;;;12.65;5.15;;;;;;;6.57;81.28;101134.44;1740761;82;21736;-82
2021/12/19 01:12:03;;;;;;;10.35;5.10;;;;;;;6.56;81.30;101128.28;1740681;82;21058;-81
2021/12/19 01:14:29;;;;;;;15.63;6.03;;;;;;;6.56;81.21;101130.91;1740654;82;21074;-82
2021/12/19 01:16:56;;;;;;;12.43;5.40;;;;;;;6.57;81.25;101118.75;1740622;82;21631;-81
2021/12/19 01:19:23;;;;;;;14.35;5.75;;;;;;;6.58;81.26;101126.64;1740617;82;20999;-81
2021/12/19 01:21:50;;;;;;;16.90;5.85;;;;;;;6.61;81.31;101127.21;1740641;82;21830;-81
2021/12/19 01:24:17;;;;;;;12.07;5.60;;;;;;;6.61;81.18;101133.33;1740901;82;21114;-80
2021/12/19 01:26:43;;;;;;;14.93;5.75;;;;;;;6.62;81.23;101126.38;1734620;82;21067;-81
2021/12/19 01:29:11;;;;;;;12.85;5.90;;;;;;;6.63;81.22;101122.95;1727106;82;21096;-81
2021/12/19 01:31:37;;;;;;;11.65;5.55;;;;;;;6.66;81.28;101118.26;1727148;82;21104;-81
2021/12/19 01:34:04;;;;;;;11.00;4.65;;;;;;;6.69;81.19;101117.11;1726998;82;21183;-81
2021/12/19 01:36:31;;;;;;;16.73;5.30;;;;;;;6.70;81.12;101117.57;1726938;83;21431;-80
2021/12/19 01:38:58;;;;;;;12.55;4.80;;;;;;;6.70;81.00;101109.72;1727007;83;21065;-81
2021/12/19 01:41:24;;;;;;;11.18;5.08;;;;;;;6.70;81.04;101105.41;1726954;82;21045;-80
2021/12/19 01:43:51;;;;;;;13.75;5.35;;;;;;;6.71;80.98;101096.72;1727104;82;21073;-81
2021/12/19 01:46:17;;;;;;;13.30;5.22;;;;;;;6.74;80.98;101084.21;1726890;83;22548;-81
2021/12/19 01:48:44;;;;;;;12.75;4.83;;;;;;;6.76;80.95;101081.25;1727085;82;21124;-81
2021/12/19 01:51:11;;;;;;;13.48;5.50;;;;;;;6.79;80.88;101070.91;1727086;82;21069;-80
2021/12/19 01:53:38;;;;;;;8.45;4.30;;;;;;;6.81;80.85;101081.02;1727051;81;21197;-81
2021/12/19 01:56:06;;;;;;;14.80;4.83;;;;;;;6.81;80.79;101073.17;1726989;81;21104;-80
2021/12/19 01:58:34;;;;;;;17.75;5.92;;;;;;;6.81;80.67;101074.09;1726997;82;21939;-80
2021/12/19 02:01:01;;;;;;;17.30;5.20;;;;;;;6.80;80.55;101085.37;1726800;83;21572;-81
2021/12/19 02:03:28;;;;;;;18.15;5.62;;;;;;;6.79;80.57;101077.05;1727157;83;21108;-81
2021/12/19 02:05:54;;;;;;;15.18;5.08;;;;;;;6.73;80.56;101051.90;1726905;82;21045;-82
2021/12/19 02:08:21;;;;;;;15.05;4.87;;;;;;;6.79;80.47;101057.43;1727295;82;21064;-81
2021/12/19 02:10:48;;;;;;;14.87;4.40;;;;;;;6.78;80.44;101042.97;1727012;81;22136;-80
2021/12/19 02:13:15;;;;;;;16.90;4.80;;;;;;;6.78;80.43;101019.00;1727073;82;21440;-80
2021/12/19 02:15:42;;;;;;;14.50;4.75;;;;;;;6.78;80.38;100994.56;1727250;83;21053;-81
2021/12/19 02:18:16;;;;;;;14.28;4.87;;;;;;;6.78;80.32;100991.95;1727126;82;21181;-81
2021/12/19 02:20:47;;;;;;;;;;;;;;;6.78;80.30;100999.37;1696027;83;21065;-81
2021/12/19 02:23:13;;;;;;;14.90;4.80;;;;;;;6.78;80.21;101020.73;1727019;83;21209;-81
2021/12/19 02:25:40;;;;;;;15.15;4.62;;;;;;;6.77;80.16;101022.84;1727140;82;21112;-81
2021/12/19 02:28:06;;;;;;;12.40;4.55;;;;;;;6.73;80.01;101045.78;1721868;82;21061;-81
2021/12/19 02:30:33;;;;;;;14.43;4.42;;;;;;;6.71;80.00;101063.13;1721367;83;21057;-81
2021/12/19 02:33:00;;;;;;;11.38;4.58;;;;;;;6.67;79.96;101059.48;1721363;83;21035;-81
2021/12/19 02:35:31;;;;;;;15.80;5.00;;;;;;;6.66;79.97;101062.02;1721583;83;21793;-81
2021/12/19 02:48:38;;;;;;;12.03;4.53;;;;;;;6.59;80.13;101021.20;1720857;83;21065;-81
2021/12/19 02:51:06;;;;;;;14.20;5.20;;;;;;;6.60;80.04;101011.62;1721192;83;21658;-80
2021/12/19 02:53:38;;;;;;;14.13;4.55;;;;;;;6.58;80.05;101020.70;1692384;83;21073;-80
2021/12/19 02:56:08;;;;;;;13.88;4.40;;;;;;;6.57;80.03;101014.13;1721565;83;22284;-80
2021/12/19 02:58:35;;;;;;;18.98;4.97;;;;;;;6.56;80.10;101017.55;1721423;83;21133;-80
2021/12/19 03:01:09;;;;;;;14.53;4.28;;;;;;;6.58;80.08;101006.74;1721417;83;21833;-80
2021/12/19 03:03:35;;;;;;;;;;;;;;;6.57;80.01;100991.89;1723183;83;21160;-80
2021/12/19 03:06:04;;;;;;;14.23;4.67;;;;;;;6.57;79.98;100987.97;1699254;84;20712;-80
2021/12/19 03:08:31;;;;;;;15.13;4.40;;;;;;;6.56;79.94;100994.90;1699316;84;21687;-80
2021/12/19 03:18:53;;;;;;;12.82;4.35;;;;;;;6.57;79.83;100965.74;1686160;84;21141;-81
2021/12/19 03:21:24;;;;;;;17.07;5.08;;;;;;;6.54;79.77;100970.41;1721267;82;21077;-80
2021/12/19 03:23:49;;;;;;;12.28;4.30;;;;;;;6.53;79.72;100969.02;1720686;83;21494;-80
2021/12/19 03:26:15;;;;;;;12.85;4.78;;;;;;;6.49;79.63;100978.86;1721313;83;21788;-80
2021/12/19 03:28:42;;;;;;;13.08;4.35;;;;;;;6.42;79.60;100987.75;1726519;82;21052;-80
2021/12/19 03:31:09;;;;;;;9.55;3.45;;;;;;;6.40;79.68;101001.17;1726569;83;21072;-80
2021/12/19 03:33:37;;;;;;;16.82;4.15;;;;;;;6.38;79.66;100996.67;1727159;82;21089;-80
2021/12/19 03:36:07;;;;;;;9.93;3.25;;;;;;;6.32;79.58;100997.28;1727261;82;21088;-79
2021/12/19 03:38:39;;;;;;;11.83;4.62;;;;;;;6.32;79.61;101002.94;1726963;82;21753;-79
2021/12/19 03:41:18;;;;;;;12.98;3.90;;;;;;;6.27;79.54;101015.81;1726110;81;21202;-80
2021/12/19 03:43:40;;;;;;;11.75;3.80;;;;;;;6.21;79.54;100997.20;1726094;83;21507;-80
2021/12/19 03:46:07;;;;;;;9.45;3.87;;;;;;;6.18;79.58;100985.32;1726962;83;21153;-82
2021/12/19 03:48:34;;;;;;;11.00;3.75;;;;;;;6.15;79.58;100974.71;1727166;83;21129;-81
2021/12/19 03:51:01;;;;;;;11.63;3.37;;;;;;;6.14;79.61;100962.48;1727287;82;23170;-80
2021/12/19 03:53:27;;;;;;;16.27;3.95;;;;;;;6.10;79.53;100965.37;1727452;82;21534;-80
2021/12/19 03:55:54;;;;;;;8.10;3.10;;;;;;;6.06;79.55;100960.80;1727223;83;21061;-80
2021/12/19 03:58:21;;;;;;;8.35;3.05;;;;;;;5.82;79.55;100925.27;1727068;82;21092;-80
2021/12/19 04:00:48;;;;;;;12.98;4.03;;;;;;;5.97;79.60;100941.69;1727051;82;21076;-80
2021/12/19 04:03:20;;;;;;;13.03;3.87;;;;;;;5.92;79.56;100946.17;1727031;82;21751;-81
2021/12/19 04:05:48;;;;;;;9.40;3.50;;;;;;;5.87;79.66;100953.78;1726996;83;21037;-80
2021/12/19 04:08:15;;;;;;;11.97;3.30;;;;;;;5.84;79.74;100958.87;1727419;82;21073;-81
2021/12/19 04:10:42;;;;;;;14.43;4.62;;;;;;;5.80;79.74;100950.39;1727188;82;21050;-81
2021/12/19 04:13:08;;;;;;;13.43;3.60;;;;;;;5.74;79.67;100937.05;1727169;82;21100;-81
2021/12/19 04:15:35;;;;;;;11.43;3.40;;;;;;;5.64;79.66;100936.61;1727021;82;22528;-81
2021/12/19 04:18:02;;;;;;;9.05;3.17;;;;;;;5.55;79.70;100932.25;1727079;82;21097;-80
2021/12/19 04:20:29;;;;;;;12.65;3.50;;;;;;;5.49;79.75;100920.63;1727237;83;21053;-81
2021/12/19 04:22:55;;;;;;;11.53;3.72;;;;;;;5.41;79.79;100917.23;1727097;82;21344;-79
2021/12/19 04:25:22;;;;;;;12.05;3.65;;;;;;;5.34;79.91;100909.92;1727193;82;21076;-80
2021/12/19 04:27:49;;;;;;;8.75;2.77;;;;;;;5.31;80.03;100929.75;1726846;82;22541;-81
2021/12/19 04:33:00;;;;;;;11.22;3.12;;;;;;;5.29;80.23;100948.36;1771574;80;22023;-81
2021/12/19 04:35:31;;;;;;;10.85;3.22;;;;;;;5.23;80.32;100952.88;1752151;81;21156;-81
2021/12/19 04:40:26;;;;;;;16.70;4.17;;;;;;;5.16;80.36;100936.03;1752743;81;21385;-81
2021/12/19 04:51:24;;;;;;;14.98;3.70;;;;;;;5.01;80.59;100919.58;1752504;81;21807;-80
2021/12/19 04:56:40;;;;;;;11.55;3.75;;;;;;;4.98;80.75;100919.45;1752782;81;21070;-81
2021/12/19 05:04:24;;;;;;;9.08;2.98;;;;;;;4.93;80.80;100925.72;1752753;81;21768;-81
2021/12/19 05:14:31;;;;;;;11.83;3.58;;;;;;;4.84;80.87;100943.52;1752900;81;21528;-81
2021/12/19 05:16:52;;;;;;;8.50;3.37;;;;;;;4.82;80.92;100944.77;1751478;81;21867;-81
2021/12/19 05:19:27;;;;;;;10.28;3.05;;;;;;;4.80;80.95;100940.27;1752748;81;21073;-80
2021/12/19 05:21:54;;;;;;;11.78;3.12;;;;;;;4.78;81.03;100945.40;1752066;81;21082;-81
2021/12/19 05:27:09;;;;;;;11.30;3.50;;;;;;;4.75;81.14;100946.56;1752963;81;21105;-81
2021/12/19 05:29:36;;;;;;;7.87;4.03;;;;;;;4.73;81.18;100944.29;1753176;81;21773;-82
2021/12/19 05:32:04;;;;;;;8.08;3.80;;;;;;;4.72;81.25;100942.48;1752507;81;21632;-81
2021/12/19 05:34:31;;;;;;;14.45;4.15;;;;;;;4.73;81.31;100952.50;1753129;81;21058;-81
2021/12/19 05:45:18;;;;;;;11.48;3.02;;;;;;;4.70;81.39;100936.30;1752589;81;21066;-81
2021/12/19 05:47:47;;;;;;;11.12;3.67;;;;;;;4.72;81.52;100938.57;1752399;81;21125;-81
2021/12/19 05:50:15;;;;;;;12.43;3.40;;;;;;;4.77;81.62;100931.89;1752519;81;21074;-81
2021/12/19 05:52:42;;;;;;;9.83;3.72;;;;;;;4.81;81.54;100936.44;1752624;81;21122;-81
2021/12/19 05:55:09;;;;;;;10.48;3.77;;;;;;;4.82;81.47;100937.33;1752538;81;22542;-81
2021/12/19 05:57:35;;;;;;;10.40;3.25;;;;;;;4.81;81.42;100938.16;1752441;81;21117;-81
2021/12/19 06:00:06;;;;;;;9.73;3.20;;;;;;;4.78;81.31;100938.87;1752466;81;21703;-81
2021/12/19 06:02:33;;;;;;;10.05;3.42;;;;;;;4.75;81.31;100933.53;1752710;81;21019;-80
2021/12/19 06:04:59;;;;;;;8.45;2.90;;;;;;;4.72;81.29;100928.56;1752384;81;21063;-80
2021/12/19 06:07:26;;;;;;;12.85;3.15;;;;;;;4.66;81.28;100920.02;1752470;81;21769;-80
2021/12/19 06:09:52;;;;;;;10.80;3.05;;;;;;;4.65;81.34;100921.73;1752332;81;21082;-80
2021/12/19 06:12:19;;;;;;;13.60;3.20;;;;;;;4.63;81.37;100915.52;1752424;81;21059;-80
2021/12/19 06:14:46;;;;;;;10.93;3.10;;;;;;;4.62;81.44;100915.47;1752410;81;21509;-81
2021/12/19 06:17:12;;;;;;;6.47;3.00;;;;;;;4.60;81.51;100917.98;1752403;81;21093;-80
2021/12/19 06:19:39;;;;;;;11.60;3.52;;;;;;;4.54;81.50;100907.63;1752392;81;21755;-81
2021/12/19 06:22:06;;;;;;;11.75;3.45;;;;;;;4.60;81.64;100915.37;1752291;81;21130;-81
2021/12/19 06:24:33;;;;;;;11.83;3.40;;;;;;;4.62;81.66;100916.77;1752679;81;21129;-81
2021/12/19 06:27:00;;;;;;;10.23;3.80;;;;;;;4.60;81.51;100919.70;1752245;81;21047;-79
2021/12/19 06:29:28;;;;;;;7.45;3.00;;;;;;;4.59;81.58;100917.90;1752436;81;21175;-80
2021/12/19 06:31:55;;;;;;;10.82;3.10;;;;;;;4.60;81.60;100911.88;1733640;81;21787;-84
2021/12/19 06:34:22;;;;;;;12.53;3.27;;;;;;;4.59;81.54;100913.98;1722316;83;21054;-83
2021/12/19 06:36:51;;;;;;;10.23;2.62;;;;;;;4.58;81.51;100914.80;1722442;83;21075;-85
2021/12/19 06:39:17;;;;;;;11.25;3.42;;;;;;;4.56;81.60;100919.95;1722103;83;21597;-71
2021/12/19 06:41:44;;;;;;;9.63;3.05;;;;;;;4.58;81.64;100917.39;1722177;83;21713;-71
2021/12/19 06:44:10;;;;;;;11.75;3.42;;;;;;;4.61;81.74;100926.69;1722124;83;21744;-71
2021/12/19 06:46:37;;;;;;;8.15;2.70;;;;;;;4.67;81.82;100927.00;1722297;83;21079;-71
2021/12/19 06:49:04;;;;;;;10.70;2.72;;;;;;;4.78;81.90;100926.26;1721916;83;21669;-71
2021/12/19 06:51:32;;;;;;;6.78;2.33;;;;;;;4.89;81.90;100925.09;1746062;81;21031;-80
2021/12/19 06:53:58;;;;;;;8.43;2.50;;;;;;;4.99;81.83;100922.14;1747122;81;21596;-80
2021/12/19 06:56:25;;;;;;;9.83;3.08;;;;;;;5.10;81.74;100930.91;1742451;81;21748;-80
2021/12/19 06:58:52;;;;;;;10.50;3.22;;;;;;;5.19;81.62;100926.14;1722351;82;21079;-80
2021/12/19 07:01:22;;;;;;;10.63;3.05;;;;;;;5.26;81.51;100926.52;1695946;83;21030;-72
2021/12/19 07:03:51;;;;;;;10.08;3.10;;;;;;;5.32;81.38;100914.17;1715317;81;21089;-72
2021/12/19 07:06:17;;;;;;;6.65;2.90;;;;;;;5.38;81.27;100917.49;1750020;81;21109;-71
2021/12/19 07:08:47;;;;;;;8.45;3.20;;;;;;;5.43;81.13;100902.95;1749972;81;21759;-71
2021/12/19 07:11:14;;;;;;;8.78;2.65;;;;;;;5.45;80.99;100908.72;1723159;81;21639;-80
2021/12/19 07:13:40;;;;;;;10.63;3.55;;;;;;;5.47;80.87;100914.45;1721495;81;21058;-80
2021/12/19 07:16:07;;;;;;;9.30;3.47;;;;;;;5.48;80.79;100910.61;1750273;81;21059;-80
2021/12/19 07:18:36;;;;;;;9.33;2.62;;;;;;;5.50;80.74;100914.19;1750317;81;21024;-80
2021/12/19 07:21:06;;;;;;;8.10;3.10;;;;;;;5.54;80.70;100905.67;1750038;81;21789;-80
2021/12/19 07:23:33;;;;;;;14.03;3.42;;;;;;;5.55;80.55;100894.80;1749710;81;21077;-80
2021/12/19 07:25:59;;;;;;;11.95;3.67;;;;;;;5.58;80.57;100894.97;1750079;81;21145;-80
2021/12/19 07:28:28;;;;;;;12.37;3.95;;;;;;;5.62;80.57;100891.67;1750115;81;21071;-80
2021/12/19 07:30:57;;;;;;;12.47;4.10;;;;;;;5.64;80.50;100886.98;1746180;81;21101;-80
2021/12/19 07:33:24;;;;;;;13.60;5.83;;;;;;;5.68;80.45;100883.23;1747977;81;21783;-81
2021/12/19 07:35:50;;;;;;;15.48;6.62;;;;;;;5.70;80.35;100881.16;1747599;82;21108;-80
2021/12/19 07:38:32;;;;;;;17.30;9.10;;;;;;;5.72;80.36;100876.89;1747819;81;21678;-72
2021/12/19 07:40:50;;;;;;;12.70;5.67;;;;;;;5.76;80.32;100874.02;1740167;82;21066;-78
2021/12/19 07:43:26;;;;;;;18.40;10.70;;;;;;;5.76;80.20;100873.63;1724558;81;21149;-77
2021/12/19 07:45:55;;;;;;;16.17;5.62;;;;;;;5.78;80.14;100871.06;1710156;83;21810;-84
2021/12/19 07:48:27;;;;;;;14.25;6.10;;;;;;;5.78;80.16;100873.28;1727678;82;21085;-76
2021/12/19 07:50:51;;;;;;;11.85;4.28;;;;;;;5.81;80.14;100870.80;1704895;82;21586;-72
2021/12/19 07:53:23;;;;;;;11.55;5.92;;;;;;;5.84;80.10;100859.61;1696771;82;21162;-72
2021/12/19 07:55:51;;;;;;;16.10;5.35;;;;;;;5.84;79.99;100857.89;1647872;83;21112;-72
2021/12/19 07:58:18;;;;;;;10.50;5.28;;;;;;;5.83;79.89;100862.61;1722042;81;21741;-79
2021/12/19 08:00:45;;;;;;;13.50;7.85;;;;;;;5.79;79.76;100861.11;1722803;82;21114;-81
2021/12/19 08:03:12;;;;;;;14.75;7.97;;;;;;;5.73;79.66;100859.53;1726581;81;21145;-81
2021/12/19 08:05:39;;;;;;;13.53;5.67;;;;;;;5.67;79.69;100860.53;1734961;81;21074;-80
2021/12/19 08:08:08;;;;;;;9.63;4.87;;;;;;;5.63;79.82;100857.80;1727151;83;21098;-80
2021/12/19 08:13:04;;;;;;;9.95;3.17;;;;;;;5.71;79.96;100860.77;1731128;82;21595;-81
2021/12/19 08:15:33;;;;;;;9.70;3.72;;;;;;;5.75;79.92;100859.19;1733050;82;21591;-83
2021/12/19 08:18:03;;;;;;;9.50;4.45;;;;;;;5.77;79.89;100846.67;1725993;81;21107;-80
2021/12/19 08:20:30;;;;;;;7.20;4.08;;;;;;;5.81;79.90;100851.20;1728927;81;21678;-80
2021/12/19 08:23:00;;;;;;;9.10;3.80;;;;;;;5.87;79.85;100854.93;1718914;83;21678;-77
2021/12/19 08:25:25;;;;;;;11.00;4.37;;;;;;;5.89;79.76;100862.00;1685133;84;21466;-79
2021/12/19 08:27:52;;;;;;;6.80;3.10;;;;;;;5.91;79.73;100872.52;1677118;84;21188;-79
2021/12/19 08:30:20;;;;;;;10.10;3.72;;;;;;;5.93;79.67;100877.41;1679105;84;21114;-78
2021/12/19 08:32:52;;;;;;;9.20;4.20;;;;;;;5.96;79.72;100864.53;1673012;84;22136;-73
2021/12/19 08:35:16;;;;;;;10.70;3.80;;;;;;;6.02;79.71;100859.57;1686590;82;21848;-72
2021/12/19 08:37:43;;;;;;;16.17;6.55;;;;;;;6.07;79.66;100855.45;1688823;83;21106;-73
2021/12/19 08:40:12;;;;;;;11.88;5.08;;;;;;;6.13;79.58;100853.11;1705605;82;21696;-72
2021/12/19 08:42:38;;;;;;;10.68;5.30;;;;;;;6.18;79.53;100844.18;1681985;85;21100;-72
2021/12/19 08:45:06;;;;;;;7.47;4.30;;;;;;;6.22;79.46;100847.41;1743553;82;21072;-72
2021/12/19 08:47:33;;;;;;;12.13;6.05;;;;;;;6.28;79.45;100836.32;1682151;85;21829;-72
2021/12/19 08:50:00;;;;;;;11.97;6.87;;;;;;;6.32;79.30;100842.16;1732304;82;21223;-71
2021/12/19 08:52:39;;;;;;;50.08;34.48;;;;;;;6.26;79.20;100837.55;1712693;82;21481;-71
2021/12/19 08:55:08;;;;;;;16.10;7.37;;;;;;;6.37;79.13;100842.84;1677171;84;21158;-71
2021/12/19 08:57:35;;;;;;;29.72;15.13;;;;;;;6.45;79.10;100852.73;1717449;82;21075;-71
2021/12/19 09:00:10;;;;;;;34.58;24.92;;;;;;;6.50;79.03;100861.27;1724847;82;21790;-71
2021/12/19 09:02:41;;;;;;;37.33;29.48;;;;;;;6.54;78.87;100861.87;1743276;82;21216;-72
2021/12/19 09:05:08;;;;;;;18.15;12.23;;;;;;;6.56;78.72;100856.28;1743776;82;21082;-72
2021/12/19 09:07:35;;;;;;;44.10;36.38;;;;;;;6.56;78.62;100860.20;1744254;82;21137;-72
2021/12/19 09:10:03;;;;;;;15.08;9.50;;;;;;;6.57;78.48;100859.39;1744193;82;21109;-72
2021/12/19 09:12:30;;;;;;;10.78;6.47;;;;;;;6.55;78.49;100855.83;1744123;82;21763;-72
2021/12/19 09:14:57;;;;;;;19.27;11.73;;;;;;;6.59;78.52;100855.55;1743913;82;21059;-73
2021/12/19 09:17:24;;;;;;;17.90;12.23;;;;;;;6.64;78.45;100864.45;1744100;82;21581;-73
2021/12/19 09:19:51;;;;;;;11.65;5.87;;;;;;;6.65;78.33;100858.83;1744162;82;21074;-73
2021/12/19 09:22:17;;;;;;;10.40;4.75;;;;;;;6.67;78.32;100861.09;1744148;82;21086;-73
2021/12/19 09:24:49;;;;;;;13.50;7.40;;;;;;;6.69;78.32;100863.36;1744259;82;22641;-72
2021/12/19 09:27:16;;;;;;;14.43;5.87;;;;;;;6.72;78.22;100857.85;1744006;81;21137;-73
2021/12/19 09:29:42;;;;;;;13.13;7.87;;;;;;;6.73;78.18;100854.39;1682255;84;21632;-72
2021/12/19 09:32:09;;;;;;;18.67;13.90;;;;;;;6.74;78.04;100854.88;1731257;82;21330;-73
2021/12/19 09:34:36;;;;;;;9.23;5.40;;;;;;;6.74;78.03;100857.92;1726801;81;21113;-73
2021/12/19 09:37:03;;;;;;;12.18;7.42;;;;;;;6.70;77.80;100863.83;1727370;83;21731;-73
2021/12/19 09:39:31;;;;;;;10.48;5.40;;;;;;;6.68;77.82;100854.63;1721655;82;21742;-72
2021/12/19 09:42:09;;;;;;;11.83;6.35;;;;;;;6.67;77.72;100858.48;1707909;83;21124;-72
2021/12/19 09:44:31;;;;;;;13.90;7.47;;;;;;;6.61;77.68;100853.46;1706089;82;21107;-73
2021/12/19 09:46:58;;;;;;;12.05;7.80;;;;;;;6.63;77.77;100852.65;1708034;83;21049;-73
2021/12/19 09:49:24;;;;;;;12.88;6.15;;;;;;;6.65;77.76;100862.34;1732434;82;21792;-72
2021/12/19 09:51:52;;;;;;;9.70;5.50;;;;;;;6.65;77.69;100849.26;1708223;83;21496;-73
2021/12/19 09:54:19;;;;;;;11.03;3.92;;;;;;;6.66;77.59;100848.41;1721386;82;21138;-73
2021/12/19 09:56:46;;;;;;;7.78;4.33;;;;;;;6.66;77.59;100842.30;1731550;82;21074;-73
2021/12/19 09:59:18;;;;;;;8.98;4.03;;;;;;;6.70;77.62;100842.90;1727741;82;21122;-73
2021/12/19 10:01:46;;;;;;;10.45;4.92;;;;;;;6.72;77.54;100842.16;1728054;82;21753;-73
2021/12/19 10:04:37;;;;;;;11.45;4.42;;;;;;;6.74;77.51;100836.56;1729639;82;21621;-73
2021/12/19 10:07:18;;;;;;;9.95;4.58;;;;;;;6.79;77.46;100835.44;1709138;82;21099;-73
2021/12/19 10:10:04;;;;;;;7.95;4.30;;;;;;;6.81;77.42;100822.92;1713224;82;21109;-73
2021/12/19 10:12:39;;;;;;;12.85;4.62;;;;;;;6.79;77.38;100792.27;1726424;81;21686;-73
2021/12/19 10:15:17;;;;;;;9.10;4.20;;;;;;;6.92;77.32;100808.06;1721267;82;21231;-73
2021/12/19 10:17:43;;;;;;;8.78;4.20;;;;;;;6.90;77.13;100811.03;1727227;82;21533;-73
2021/12/19 10:20:15;;;;;;;10.70;4.87;;;;;;;6.88;77.12;100812.27;1717235;83;21108;-73
2021/12/19 10:22:47;;;;;;;13.98;5.42;;;;;;;6.93;77.21;100801.58;1712558;82;21188;-73
2021/12/19 10:25:30;;;;;;;7.95;3.83;;;;;;;6.99;77.13;100799.20;1714696;82;21113;-73
2021/12/19 10:28:04;;;;;;;12.65;4.75;;;;;;;7.07;77.08;100796.01;1727201;81;21808;-73
2021/12/19 10:30:42;;;;;;;9.68;4.60;;;;;;;7.18;77.03;100795.59;1727490;81;21137;-73
2021/12/19 10:33:12;;;;;;;7.65;4.28;;;;;;;7.28;76.96;100794.64;1727246;82;21126;-73
2021/12/19 10:35:54;;;;;;;12.50;4.03;;;;;;;7.32;76.67;100800.08;1726907;82;21532;-73
2021/12/19 10:38:29;;;;;;;11.88;4.22;;;;;;;7.33;76.45;100804.46;1726675;82;22263;-73
2021/12/19 10:41:16;;;;;;;9.25;3.90;;;;;;;7.32;76.30;100794.84;1726699;82;23054;-73
2021/12/19 10:44:19;;;;;;;9.83;4.08;;;;;;;7.28;76.15;100777.62;1727256;82;21070;-73
2021/12/19 10:46:33;;;;;;;7.92;3.62;;;;;;;7.26;76.18;100776.67;1721981;83;21198;-73
2021/12/19 10:48:59;;;;;;;9.20;4.12;;;;;;;7.23;76.08;100777.89;1727350;82;21527;-73
2021/12/19 10:51:26;;;;;;;11.85;4.25;;;;;;;7.22;76.06;100783.52;1727256;82;21078;-73
2021/12/19 10:53:55;;;;;;;12.00;4.45;;;;;;;7.16;76.12;100776.31;1727570;83;21753;-73
2021/12/19 10:56:30;;;;;;;11.20;4.55;;;;;;;7.25;75.96;100805.02;1727222;82;21074;-73
2021/12/19 10:59:01;;;;;;;13.80;5.15;;;;;;;7.20;75.78;100795.23;1701915;83;21117;-73
2021/12/19 11:01:37;;;;;;;9.15;4.55;;;;;;;7.18;75.90;100790.78;1727618;82;21117;-73
2021/12/19 11:04:17;;;;;;;10.72;4.47;;;;;;;7.22;75.99;100783.94;1727624;83;21116;-73
2021/12/19 11:06:50;;;;;;;6.70;3.20;;;;;;;7.26;75.79;100781.91;1727683;83;21785;-73
2021/12/19 11:09:29;;;;;;;9.33;3.33;;;;;;;7.19;75.22;100782.11;1727423;82;21564;-73
2021/12/19 11:11:58;;;;;;;7.45;2.87;;;;;;;7.11;74.71;100784.39;1727616;82;21106;-73
2021/12/19 11:14:38;;;;;;;9.98;3.75;;;;;;;7.06;74.51;100792.89;1727715;81;21081;-73
2021/12/19 11:17:10;;;;;;;10.15;3.60;;;;;;;7.03;74.55;100781.90;1727594;83;21181;-73
2021/12/19 11:19:38;;;;;;;6.55;2.37;;;;;;;7.02;74.26;100799.77;1727174;82;23168;-75
2021/12/19 11:22:05;;;;;;;4.40;1.47;;;;;;;6.96;73.34;100783.80;1727556;82;21077;-75
2021/12/19 11:24:32;;;;;;;5.20;2.35;;;;;;;6.86;72.00;100771.19;1727552;83;21540;-74
2021/12/19 11:27:01;;;;;;;4.30;2.00;;;;;;;6.76;72.34;100744.65;1727255;82;21194;-75
2021/12/19 11:29:28;;;;;;;5.17;1.90;;;;;;;6.71;72.37;100726.56;1727472;82;21090;-74
2021/12/19 11:31:58;;;;;;;4.67;1.95;;;;;;;6.73;72.11;100720.09;1727297;82;22585;-73
2021/12/19 11:35:10;;;;;;;5.97;1.77;;;;;;;6.70;72.14;100726.49;1719174;83;21091;-72
2021/12/19 11:37:46;;;;;;;5.87;1.82;;;;;;;6.68;71.84;100733.00;1718376;82;21169;-72
2021/12/19 11:40:18;;;;;;;4.92;2.02;;;;;;;6.64;71.80;100726.25;1714851;82;21648;-72
2021/12/19 11:42:45;;;;;;;4.97;2.17;;;;;;;6.63;71.39;100745.41;1714405;82;21122;-72
2021/12/19 11:45:29;;;;;;;4.08;1.90;;;;;;;6.59;71.10;100739.16;1714050;82;22568;-72
2021/12/19 11:48:06;;;;;;;8.40;2.58;;;;;;;6.54;70.46;100743.30;1713703;83;21661;-72
2021/12/19 11:50:32;;;;;;;8.68;2.27;;;;;;;6.49;70.69;100731.33;1712391;83;21580;-73
2021/12/19 11:53:09;;;;;;;4.30;2.35;;;;;;;6.46;70.51;100710.70;1714149;83;21094;-72
2021/12/19 11:55:40;;;;;;;5.58;2.37;;;;;;;6.41;70.08;100714.45;1712626;83;21079;-73
2021/12/19 11:58:15;;;;;;;4.08;1.72;;;;;;;6.35;69.85;100715.08;1714440;82;21954;-73
2021/12/19 12:00:50;;;;;;;5.97;2.00;;;;;;;6.24;69.59;100726.81;1718431;82;21020;-72
2021/12/19 12:03:22;;;;;;;3.58;2.05;;;;;;;6.12;69.47;100744.19;1714168;82;21080;-74
2021/12/19 12:06:02;;;;;;;5.28;2.30;;;;;;;5.99;69.12;100747.10;1714166;83;21071;-71
2021/12/19 12:08:29;;;;;;;5.17;2.58;;;;;;;5.87;69.25;100746.52;1707986;83;21078;-72
2021/12/19 12:11:02;;;;;;;5.30;2.47;;;;;;;5.75;69.34;100741.23;1714588;83;22463;-71
2021/12/19 12:13:40;;;;;;;9.43;2.77;;;;;;;5.65;69.16;100747.77;1714411;82;21177;-71
2021/12/19 12:16:23;;;;;;;4.92;2.17;;;;;;;5.61;68.88;100741.02;1714811;82;21130;-72
2021/12/19 12:18:59;;;;;;;6.97;2.40;;;;;;;5.60;69.40;100737.52;1714245;83;21062;-71
2021/12/19 12:21:31;;;;;;;5.15;2.20;;;;;;;5.62;69.23;100733.27;1714399;83;21158;-72
2021/12/19 12:24:13;;;;;;;10.50;2.22;;;;;;;5.67;69.02;100745.63;1714493;82;21835;-71
2021/12/19 12:26:54;;;;;;;3.25;1.80;;;;;;;5.71;68.42;100739.74;1714497;82;21063;-72
2021/12/19 12:29:20;;;;;;;2.75;1.72;;;;;;;5.74;68.29;100743.35;1713968;83;21680;-71
2021/12/19 12:31:47;;;;;;;6.00;1.85;;;;;;;5.73;68.13;100738.09;1654076;83;21126;-71
2021/12/19 12:34:16;;;;;;;5.10;2.00;;;;;;;5.72;68.16;100745.00;1719564;82;21591;-71
2021/12/19 12:36:43;;;;;;;5.60;2.00;;;;;;;5.74;67.96;100751.61;1727373;82;21889;-71
2021/12/19 12:39:20;;;;;;;6.87;2.15;;;;;;;5.68;67.82;100739.17;1727260;83;21529;-71
2021/12/19 12:44:20;;;;;;;5.35;1.98;;;;;;;5.50;67.67;100722.67;1727488;82;21087;-72
2021/12/19 12:46:47;;;;;;;5.75;2.15;;;;;;;5.44;67.87;100716.77;1727505;83;21140;-72